createdAt,value
2019-05-30T00:01:48.732Z,96821.98
2019-05-30T00:04:15.021Z,96823.30
2019-05-30T00:06:41.244Z,96818.52
2019-05-30T00:09:08.144Z,96817.07
2019-05-30T00:11:34.547Z,96818.39
2019-05-30T00:14:00.787Z,96812.78
2019-05-30T00:16:30.402Z,96812.28
2019-05-30T00:19:02.876Z,96817.66
2019-05-30T00:21:34.334Z,96821.73
2019-05-30T00:24:04.241Z,96821.39
2019-05-30T00:26:33.342Z,96822.36
2019-05-30T00:29:00.307Z,96823.30
2019-05-30T00:31:26.730Z,96825.23
2019-05-30T00:33:53.161Z,96825.10
2019-05-30T00:36:19.420Z,96830.48
2019-05-30T00:38:45.775Z,96826.44
2019-05-30T00:41:12.203Z,96824.77
2019-05-30T00:43:38.297Z,96829.78
2019-05-30T00:46:04.667Z,96827.64
2019-05-30T00:48:30.796Z,96836.36
2019-05-30T00:50:58.258Z,96828.70
2019-05-30T00:53:24.642Z,96825.97
2019-05-30T00:55:51.155Z,96826.56
2019-05-30T00:58:17.454Z,96819.64
2019-05-30T01:00:44.463Z,96822.05
2019-05-30T01:03:20.219Z,96816.78
2019-05-30T01:05:46.515Z,96815.59
2019-05-30T01:08:12.651Z,96815.81
2019-05-30T01:10:38.880Z,96817.98
2019-05-30T01:13:05.273Z,96821.42
2019-05-30T01:15:31.669Z,96818.34
2019-05-30T01:17:58.803Z,96817.27
2019-05-30T01:20:25.451Z,96809.16
2019-05-30T01:22:51.646Z,96813.22
2019-05-30T01:25:18.053Z,96809.86
2019-05-30T01:27:44.334Z,96813.70
2019-05-30T01:30:11.065Z,96812.63
2019-05-30T01:32:37.445Z,96807.95
2019-05-30T01:35:04.261Z,96809.86
2019-05-30T01:37:30.823Z,96805.33
2019-05-30T01:39:57.690Z,96813.56
2019-05-30T01:42:25.033Z,96814.41
2019-05-30T01:44:51.312Z,96814.05
2019-05-30T01:47:17.676Z,96814.41
2019-05-30T01:49:44.108Z,96810.46
2019-05-30T01:52:10.309Z,96813.20
2019-05-30T01:54:36.559Z,96808.07
2019-05-30T01:57:03.326Z,96811.42
2019-05-30T01:59:29.492Z,96810.81
2019-05-30T02:01:55.741Z,96807.83
2019-05-30T02:04:21.952Z,96817.38
2019-05-30T02:06:48.068Z,96822.17
2019-05-30T02:09:14.411Z,96819.20
2019-05-30T02:11:42.638Z,96824.69
2019-05-30T02:14:09.962Z,96817.98
2019-05-30T02:16:36.274Z,96820.38
2019-05-30T02:19:03.728Z,96821.81
2019-05-30T02:21:30.038Z,96824.09
2019-05-30T02:23:56.250Z,96817.52
2019-05-30T02:26:22.350Z,96818.45
2019-05-30T02:28:48.553Z,96823.71
2019-05-30T02:31:14.664Z,96827.89
2019-05-30T02:33:40.900Z,96825.38
2019-05-30T02:36:08.449Z,96827.31
2019-05-30T02:38:35.145Z,96828.86
2019-05-30T02:41:03.189Z,96830.53
2019-05-30T02:43:29.436Z,96829.69
2019-05-30T02:45:55.579Z,96825.98
2019-05-30T02:48:21.828Z,96830.63
2019-05-30T02:50:48.024Z,96832.55
2019-05-30T02:53:14.161Z,96831.70
2019-05-30T02:55:40.948Z,96830.16
2019-05-30T02:58:08.600Z,96832.41
2019-05-30T03:00:36.018Z,96836.34
2019-05-30T03:03:04.044Z,96831.70
2019-05-30T03:05:31.354Z,96830.01
2019-05-30T03:07:58.010Z,96834.33
2019-05-30T03:10:24.359Z,96832.28
2019-05-30T03:12:50.598Z,96833.13
2019-05-30T03:15:19.306Z,96829.55
2019-05-30T03:17:45.564Z,96831.88
2019-05-30T03:20:22.145Z,96827.59
2019-05-30T03:22:40.557Z,96831.88
2019-05-30T03:25:07.900Z,96827.12
2019-05-30T03:27:35.050Z,96825.45
2019-05-30T03:30:05.121Z,96832.02
2019-05-30T03:33:01.870Z,96842.27
2019-05-30T03:34:57.976Z,96837.36
2019-05-30T03:37:29.113Z,96850.60
2019-05-30T03:39:52.358Z,96847.05
2019-05-30T03:42:18.525Z,96846.44
2019-05-30T03:44:44.676Z,96846.70
2019-05-30T03:47:13.814Z,96851.84
2019-05-30T03:49:44.845Z,96848.59
2019-05-30T03:52:16.811Z,96850.64
2019-05-30T03:54:42.526Z,96854.85
2019-05-30T03:57:21.655Z,96854.62
2019-05-30T03:59:57.724Z,96854.97
2019-05-30T04:02:27.639Z,96858.80
2019-05-30T04:05:11.971Z,96859.41
2019-05-30T04:07:41.616Z,96862.27
2019-05-30T04:10:11.408Z,96865.86
2019-05-30T04:12:44.432Z,96868.25
2019-05-30T04:15:31.802Z,96868.52
2019-05-30T04:17:58.157Z,96869.22
2019-05-30T04:20:25.511Z,96875.55
2019-05-30T04:22:51.695Z,96875.81
2019-05-30T04:25:18.675Z,96878.56
2019-05-30T04:27:44.904Z,96877.59
2019-05-30T04:30:11.908Z,96874.73
2019-05-30T04:32:38.193Z,96877.50
2019-05-30T04:35:04.548Z,96882.03
2019-05-30T04:37:30.703Z,96882.29
2019-05-30T04:39:56.842Z,96882.88
2019-05-30T04:42:23.042Z,96889.59
2019-05-30T04:44:50.068Z,96887.77
2019-05-30T04:47:18.242Z,96893.74
2019-05-30T04:49:44.327Z,96891.60
2019-05-30T04:52:15.395Z,96893.02
2019-05-30T04:54:38.565Z,96890.66
2019-05-30T04:57:04.765Z,96895.91
2019-05-30T04:59:30.873Z,96889.31
2019-05-30T05:01:57.080Z,96896.01
2019-05-30T05:04:23.187Z,96895.52
2019-05-30T05:06:49.365Z,96901.62
2019-05-30T05:09:16.005Z,96901.13
2019-05-30T05:11:42.482Z,96896.34
2019-05-30T05:14:08.583Z,96900.02
2019-05-30T05:16:36.462Z,96910.43
2019-05-30T05:19:02.977Z,96905.27
2019-05-30T05:21:29.167Z,96900.34
2019-05-30T05:23:55.300Z,96901.86
2019-05-30T05:26:21.679Z,96899.58
2019-05-30T05:28:48.896Z,96897.41
2019-05-30T05:31:16.351Z,96898.09
2019-05-30T05:33:55.665Z,96897.34
2019-05-30T05:36:10.687Z,96898.37
2019-05-30T05:38:36.781Z,96900.92
2019-05-30T05:41:03.203Z,96904.62
2019-05-30T05:43:29.297Z,96902.28
2019-05-30T05:45:55.473Z,96906.09
2019-05-30T05:48:22.620Z,96906.98
2019-05-30T05:50:49.049Z,96904.16
2019-05-30T05:53:16.546Z,96911.96
2019-05-30T05:55:42.940Z,96916.55
2019-05-30T05:58:09.133Z,96914.11
2019-05-30T06:00:35.275Z,96913.11
2019-05-30T06:03:01.453Z,96919.52
2019-05-30T06:05:28.433Z,96921.36
2019-05-30T06:07:54.734Z,96923.28
2019-05-30T06:10:21.735Z,96927.41
2019-05-30T06:12:47.997Z,96921.46
2019-05-30T06:15:14.429Z,96928.20
2019-05-30T06:17:40.801Z,96928.58
2019-05-30T06:20:07.853Z,96928.03
2019-05-30T06:22:34.088Z,96934.53
2019-05-30T06:25:02.357Z,96936.69
2019-05-30T06:27:28.900Z,96938.17
2019-05-30T06:29:55.358Z,96946.53
2019-05-30T06:32:22.885Z,96935.17
2019-05-30T06:34:49.405Z,96928.86
2019-05-30T06:37:15.680Z,96939.55
2019-05-30T06:39:42.033Z,96940.83
2019-05-30T06:42:08.422Z,96941.22
2019-05-30T06:44:34.556Z,96936.16
2019-05-30T06:47:00.828Z,96936.13
2019-05-30T06:49:28.921Z,96931.45
2019-05-30T06:51:55.792Z,96938.23
2019-05-30T06:54:24.208Z,96938.52
2019-05-30T06:56:51.014Z,96933.13
2019-05-30T06:59:17.749Z,96940.17
2019-05-30T07:01:43.942Z,96932.28
2019-05-30T07:04:13.714Z,96932.33
2019-05-30T07:06:41.689Z,96939.64
2019-05-30T07:09:11.128Z,96939.36
2019-05-30T07:11:37.582Z,96933.34
2019-05-30T07:14:09.461Z,96938.34
2019-05-30T07:16:36.144Z,96940.89
2019-05-30T07:19:02.491Z,96946.94
2019-05-30T07:21:29.795Z,96943.13
2019-05-30T07:23:56.102Z,96941.98
2019-05-30T07:26:22.276Z,96943.38
2019-05-30T07:28:54.273Z,96947.95
2019-05-30T07:31:20.567Z,96937.43
2019-05-30T07:33:46.729Z,96947.33
2019-05-30T07:36:12.951Z,96943.27
2019-05-30T07:38:53.690Z,96950.96
2019-05-30T07:41:28.787Z,96949.52
2019-05-30T07:44:00.753Z,96952.42
2019-05-30T07:46:29.051Z,96947.84
2019-05-30T07:48:55.250Z,96946.40
2019-05-30T07:51:24.390Z,96941.34
2019-05-30T07:53:49.517Z,96944.02
2019-05-30T07:56:15.717Z,96940.03
2019-05-30T07:58:41.932Z,96941.08
2019-05-30T08:01:08.123Z,96940.52
2019-05-30T08:03:34.730Z,96942.89
2019-05-30T08:06:04.148Z,96941.95
2019-05-30T08:08:30.477Z,96939.16
2019-05-30T08:11:09.016Z,96943.16
2019-05-30T08:13:24.696Z,96935.41
2019-05-30T08:15:50.837Z,96929.12
2019-05-30T08:18:16.988Z,96943.80
2019-05-30T08:20:43.178Z,96934.05
2019-05-30T08:23:10.067Z,96940.42
2019-05-30T08:25:36.638Z,96935.97
2019-05-30T08:28:03.387Z,96941.30
2019-05-30T08:30:30.293Z,96944.50
2019-05-30T08:32:56.732Z,96939.23
2019-05-30T08:35:36.430Z,96943.55
2019-05-30T08:37:51.193Z,96944.59
2019-05-30T08:40:17.596Z,96939.13
2019-05-30T08:42:43.791Z,96939.62
2019-05-30T08:45:11.110Z,96941.80
2019-05-30T08:47:38.091Z,96945.83
2019-05-30T08:50:07.343Z,96935.07
2019-05-30T08:52:34.451Z,96941.06
2019-05-30T08:55:00.962Z,96938.94
2019-05-30T08:57:27.143Z,96940.45
2019-05-30T08:59:53.928Z,96946.29
2019-05-30T09:02:20.037Z,96940.99
2019-05-30T09:04:46.275Z,96937.83
2019-05-30T09:07:13.000Z,96936.84
2019-05-30T09:09:40.155Z,96925.70
2019-05-30T09:12:06.437Z,96925.21
2019-05-30T09:14:32.778Z,96929.03
2019-05-30T09:16:59.016Z,96930.34
2019-05-30T09:19:25.219Z,96925.87
2019-05-30T09:21:52.476Z,96922.83
2019-05-30T09:24:18.965Z,96923.80
2019-05-30T09:26:48.672Z,96923.11
2019-05-30T09:29:14.029Z,96921.28
2019-05-30T09:31:41.190Z,96909.79
2019-05-30T09:34:11.426Z,96911.27
2019-05-30T09:36:36.345Z,96910.70
2019-05-30T09:39:05.350Z,96910.16
2019-05-30T09:41:31.561Z,96908.77
2019-05-30T09:43:57.651Z,96902.55
2019-05-30T09:46:23.881Z,96905.25
2019-05-30T09:48:51.705Z,96899.92
2019-05-30T09:51:18.227Z,96909.60
2019-05-30T09:53:44.579Z,96908.94
2019-05-30T09:56:10.899Z,96907.01
2019-05-30T09:58:36.989Z,96907.07
2019-05-30T10:01:03.777Z,96902.80
2019-05-30T10:03:29.925Z,96898.66
2019-05-30T10:05:56.142Z,96901.53
2019-05-30T10:08:22.279Z,96901.17
2019-05-30T10:10:49.539Z,96897.16
2019-05-30T10:13:15.900Z,96891.95
2019-05-30T10:15:42.081Z,96896.26
2019-05-30T10:18:08.307Z,96893.05
2019-05-30T10:20:34.716Z,96889.94
2019-05-30T10:23:03.562Z,96878.13
2019-05-30T10:25:29.381Z,96882.55
2019-05-30T10:27:55.735Z,96882.16
2019-05-30T10:30:23.468Z,96878.41
2019-05-30T10:32:50.268Z,96878.81
2019-05-30T10:35:18.305Z,96878.64
2019-05-30T10:37:47.132Z,96876.37
2019-05-30T10:40:13.964Z,96872.02
2019-05-30T10:42:40.259Z,96860.96
2019-05-30T10:45:09.805Z,96864.11
2019-05-30T10:47:36.140Z,96865.27
2019-05-30T10:50:05.660Z,96865.27
2019-05-30T10:52:33.821Z,96863.02
2019-05-30T10:55:00.258Z,96856.88
2019-05-30T10:57:26.531Z,96857.66
2019-05-30T10:59:52.797Z,96856.08
2019-05-30T11:02:19.898Z,96860.70
2019-05-30T11:04:47.817Z,96854.52
2019-05-30T11:07:26.747Z,96858.34
2019-05-30T11:09:57.377Z,96857.02
2019-05-30T11:12:23.569Z,96847.98
2019-05-30T11:14:50.376Z,96851.45
2019-05-30T11:17:18.008Z,96852.46
2019-05-30T11:19:44.254Z,96845.52
2019-05-30T11:22:10.306Z,96851.12
2019-05-30T11:24:36.522Z,96844.70
2019-05-30T11:27:02.911Z,96839.92
2019-05-30T11:29:29.106Z,96837.16
2019-05-30T11:31:55.286Z,96834.03
2019-05-30T11:34:21.545Z,96833.59
2019-05-30T11:36:49.003Z,96832.34
2019-05-30T11:39:15.494Z,96840.34
2019-05-30T11:41:41.601Z,96816.39
2019-05-30T11:44:07.906Z,96818.41
2019-05-30T11:46:34.183Z,96815.17
2019-05-30T11:49:00.485Z,96813.80
2019-05-30T11:51:26.641Z,96808.89
2019-05-30T11:53:53.812Z,96814.13
2019-05-30T11:56:19.945Z,96805.79
2019-05-30T11:58:46.220Z,96805.25
2019-05-30T12:01:12.676Z,96796.54
2019-05-30T12:03:38.809Z,96794.97
2019-05-30T12:06:05.555Z,96800.11
2019-05-30T12:08:31.697Z,96792.01
2019-05-30T12:10:59.266Z,96788.72
2019-05-30T12:13:25.625Z,96793.70
2019-05-30T12:15:53.301Z,96794.52
2019-05-30T12:18:19.569Z,96797.36
2019-05-30T12:20:46.320Z,96789.73
2019-05-30T12:23:12.442Z,96787.55
2019-05-30T12:25:39.404Z,96783.98
2019-05-30T12:28:05.617Z,96776.77
2019-05-30T12:30:31.957Z,96769.80
2019-05-30T12:32:58.387Z,96770.81
2019-05-30T12:35:24.855Z,96774.21
2019-05-30T12:37:56.071Z,96775.36
2019-05-30T12:40:21.069Z,96775.23
2019-05-30T12:42:47.714Z,96771.66
2019-05-30T12:45:14.312Z,96767.59
2019-05-30T12:47:40.566Z,96770.81
2019-05-30T12:50:08.909Z,96759.80
2019-05-30T12:52:35.273Z,96771.22
2019-05-30T12:55:03.144Z,96761.51
2019-05-30T12:57:29.502Z,96757.43
2019-05-30T12:59:56.773Z,96762.08
2019-05-30T13:02:23.115Z,96763.45
2019-05-30T13:04:49.263Z,96770.17
2019-05-30T13:07:15.539Z,96763.68
2019-05-30T13:09:41.683Z,96753.46
2019-05-30T13:12:07.853Z,96762.19
2019-05-30T13:14:33.992Z,96756.13
2019-05-30T13:17:00.143Z,96750.46
2019-05-30T13:19:26.442Z,96761.60
2019-05-30T13:21:53.820Z,96749.66
2019-05-30T13:24:20.887Z,96741.94
2019-05-30T13:26:47.137Z,96742.90
2019-05-30T13:29:13.428Z,96743.37
2019-05-30T13:31:39.513Z,96753.70
2019-05-30T13:34:07.047Z,96745.15
2019-05-30T13:36:33.283Z,96744.03
2019-05-30T13:38:59.488Z,96742.27
2019-05-30T13:41:25.721Z,96741.48
2019-05-30T13:43:52.031Z,96746.45
2019-05-30T13:46:18.133Z,96741.06
2019-05-30T13:48:44.621Z,96741.08
2019-05-30T13:51:10.729Z,96732.52
2019-05-30T13:53:37.135Z,96734.02
2019-05-30T13:56:03.487Z,96733.38
2019-05-30T13:58:29.642Z,96734.33
2019-05-30T14:00:55.828Z,96745.05
2019-05-30T14:03:22.047Z,96744.03
2019-05-30T14:05:48.176Z,96743.97
2019-05-30T14:08:16.747Z,96734.66
2019-05-30T14:10:42.500Z,96735.30
2019-05-30T14:13:09.009Z,96723.61
2019-05-30T14:15:35.207Z,96723.61
2019-05-30T14:18:04.961Z,96725.31
2019-05-30T14:20:32.419Z,96725.09
2019-05-30T14:22:58.619Z,96727.48
2019-05-30T14:25:24.707Z,96717.19
2019-05-30T14:27:50.904Z,96713.18
2019-05-30T14:30:17.399Z,96720.09
2019-05-30T14:32:43.600Z,96717.61
2019-05-30T14:35:11.730Z,96720.33
2019-05-30T14:37:38.076Z,96723.34
2019-05-30T14:40:09.394Z,96719.36
2019-05-30T14:42:35.811Z,96716.41
2019-05-30T14:45:04.735Z,96719.59
2019-05-30T14:47:31.267Z,96722.89
2019-05-30T14:49:57.549Z,96717.28
2019-05-30T14:52:23.773Z,96708.48
2019-05-30T14:54:50.037Z,96703.30
2019-05-30T14:57:17.271Z,96702.63
2019-05-30T14:59:43.544Z,96707.51
2019-05-30T15:02:09.863Z,96710.86
2019-05-30T15:04:37.064Z,96712.28
2019-05-30T15:07:03.446Z,96712.28
2019-05-30T15:09:29.700Z,96711.27
2019-05-30T15:11:55.963Z,96708.21
2019-05-30T15:14:22.113Z,96702.31
2019-05-30T15:16:55.277Z,96702.31
2019-05-30T15:19:23.812Z,96703.72
2019-05-30T15:21:49.963Z,96706.00
2019-05-30T15:24:16.142Z,96703.22
2019-05-30T15:26:42.281Z,96692.43
2019-05-30T15:29:08.616Z,96697.79
2019-05-30T15:31:35.052Z,96697.22
2019-05-30T15:34:01.296Z,96703.59
2019-05-30T15:36:27.642Z,96700.52
2019-05-30T15:38:53.920Z,96703.95
2019-05-30T15:41:20.200Z,96706.31
2019-05-30T15:43:46.487Z,96698.05
2019-05-30T15:46:13.871Z,96704.52
2019-05-30T15:48:40.178Z,96691.73
2019-05-30T15:51:06.543Z,96699.48
2019-05-30T15:53:32.677Z,96696.27
2019-05-30T15:55:58.893Z,96695.09
2019-05-30T15:58:25.064Z,96698.41
2019-05-30T16:00:51.268Z,96696.84
2019-05-30T16:03:18.487Z,96697.10
2019-05-30T16:05:44.815Z,96693.46
2019-05-30T16:08:10.916Z,96693.66
2019-05-30T16:10:37.243Z,96694.36
2019-05-30T16:13:03.451Z,96693.28
2019-05-30T16:15:30.752Z,96690.16
2019-05-30T16:17:56.861Z,96694.00
2019-05-30T16:20:23.208Z,96691.19
2019-05-30T16:22:49.426Z,96695.84
2019-05-30T16:25:15.792Z,96688.84
2019-05-30T16:27:41.967Z,96690.00
2019-05-30T16:30:09.536Z,96679.73
2019-05-30T16:32:36.120Z,96695.40
2019-05-30T16:35:04.159Z,96694.02
2019-05-30T16:37:30.308Z,96690.51
2019-05-30T16:40:06.153Z,96691.37
2019-05-30T16:42:24.661Z,96694.50
2019-05-30T16:44:50.787Z,96694.00
2019-05-30T16:47:18.171Z,96701.41
2019-05-30T16:49:44.478Z,96705.30
2019-05-30T16:52:10.652Z,96705.03
2019-05-30T16:54:36.752Z,96707.66
2019-05-30T16:57:03.130Z,96704.70
2019-05-30T16:59:29.368Z,96704.98
2019-05-30T17:01:58.225Z,96703.12
2019-05-30T17:04:23.709Z,96700.63
2019-05-30T17:06:49.912Z,96699.70
2019-05-30T17:09:17.167Z,96695.67
2019-05-30T17:11:43.505Z,96695.88
2019-05-30T17:14:09.639Z,96695.88
2019-05-30T17:16:35.783Z,96696.77
2019-05-30T17:19:01.929Z,96698.27
2019-05-30T17:21:28.065Z,96694.04
2019-05-30T17:23:54.264Z,96700.69
2019-05-30T17:26:21.211Z,96700.17
2019-05-30T17:28:47.720Z,96707.96
2019-05-30T17:31:13.955Z,96703.96
2019-05-30T17:33:40.045Z,96711.89
2019-05-30T17:36:07.225Z,96708.36
2019-05-30T17:38:33.321Z,96712.25
2019-05-30T17:40:59.504Z,96708.25
2019-05-30T17:43:25.594Z,96711.67
2019-05-30T17:45:51.857Z,96706.88
2019-05-30T17:48:19.226Z,96707.85
2019-05-30T17:50:45.624Z,96707.23
2019-05-30T17:53:11.703Z,96711.67
2019-05-30T17:55:37.927Z,96712.18
2019-05-30T17:58:04.029Z,96719.41
2019-05-30T18:00:30.673Z,96716.31
2019-05-30T18:02:56.994Z,96725.81
2019-05-30T18:05:24.602Z,96717.44
2019-05-30T18:07:50.985Z,96715.22
2019-05-30T18:10:17.713Z,96719.91
2019-05-30T18:12:43.974Z,96723.37
2019-05-30T18:15:12.409Z,96725.50
2019-05-30T18:17:38.570Z,96720.13
2019-05-30T18:20:06.561Z,96720.54
2019-05-30T18:22:32.675Z,96717.48
2019-05-30T18:24:58.870Z,96719.81
2019-05-30T18:27:25.914Z,96721.25
2019-05-30T18:29:52.159Z,96724.68
2019-05-30T18:32:18.315Z,96732.83
2019-05-30T18:34:44.474Z,96726.23
2019-05-30T18:37:10.647Z,96733.91
2019-05-30T18:39:36.836Z,96728.11
2019-05-30T18:42:03.177Z,96728.75
2019-05-30T18:44:31.608Z,96726.56
2019-05-30T18:46:57.485Z,96729.15
2019-05-30T18:49:24.951Z,96734.62
2019-05-30T18:51:51.180Z,96729.05
2019-05-30T18:54:17.380Z,96734.28
2019-05-30T18:56:43.522Z,96735.52
2019-05-30T18:59:09.915Z,96748.00
2019-05-30T19:01:36.027Z,96742.11
2019-05-30T19:04:02.363Z,96750.97
2019-05-30T19:06:29.952Z,96748.36
2019-05-30T19:08:56.319Z,96743.77
2019-05-30T19:11:29.062Z,96743.44
2019-05-30T19:13:50.726Z,96721.72
2019-05-30T19:16:17.070Z,96749.27
2019-05-30T19:18:43.303Z,96752.68
2019-05-30T19:21:09.515Z,96760.08
2019-05-30T19:23:39.537Z,96762.96
2019-05-30T19:26:03.951Z,96763.05
2019-05-30T19:28:30.487Z,96772.63
2019-05-30T19:30:57.084Z,96766.00
2019-05-30T19:33:23.187Z,96766.09
2019-05-30T19:35:49.829Z,96769.70
2019-05-30T19:38:16.319Z,96770.91
2019-05-30T19:40:42.636Z,96774.62
2019-05-30T19:43:08.871Z,96774.17
2019-05-30T19:45:36.167Z,96775.95
2019-05-30T19:48:02.783Z,96755.23
2019-05-30T19:50:28.929Z,96771.74
2019-05-30T19:52:55.152Z,96771.74
2019-05-30T19:55:21.675Z,96779.33
2019-05-30T19:57:48.053Z,96764.73
2019-05-30T20:00:15.055Z,96764.73
2019-05-30T20:02:41.500Z,96792.85
2019-05-30T20:05:07.918Z,96795.39
2019-05-30T20:07:34.597Z,96793.20
2019-05-30T20:10:02.058Z,96787.94
2019-05-30T20:12:28.715Z,96792.34
2019-05-30T20:14:54.925Z,96796.23
2019-05-30T20:17:21.105Z,96789.82
2019-05-30T20:19:47.262Z,96800.58
2019-05-30T20:22:13.445Z,96799.23
2019-05-30T20:24:40.581Z,96791.59
2019-05-30T20:27:07.051Z,96798.63
2019-05-30T20:29:33.486Z,96797.15
2019-05-30T20:31:59.690Z,96797.15
2019-05-30T20:34:25.910Z,96796.27
2019-05-30T20:39:18.155Z,96810.66
2019-05-30T20:41:44.297Z,96807.06
2019-05-30T20:44:10.463Z,96806.33
2019-05-30T20:46:37.081Z,96811.39
2019-05-30T20:49:04.122Z,96811.84
2019-05-30T20:51:30.372Z,96815.27
2019-05-30T20:53:56.522Z,96816.53
2019-05-30T20:56:22.644Z,96817.99
2019-05-30T20:58:48.802Z,96819.33
2019-05-30T21:01:14.961Z,96831.05
2019-05-30T21:03:41.784Z,96823.41
2019-05-30T21:06:08.491Z,96821.30
2019-05-30T21:08:36.963Z,96819.11
2019-05-30T21:11:03.191Z,96820.80
2019-05-30T21:13:34.481Z,96824.84
2019-05-30T21:16:01.297Z,96825.33
2019-05-30T21:18:27.711Z,96826.33
2019-05-30T21:20:53.815Z,96828.84
2019-05-30T21:23:21.959Z,96832.70
2019-05-30T21:25:48.155Z,96834.22
2019-05-30T21:28:14.443Z,96825.05
2019-05-30T21:30:41.267Z,96827.32
2019-05-30T21:33:07.988Z,96831.70
2019-05-30T21:35:34.414Z,96831.52
2019-05-30T21:38:00.866Z,96834.74
2019-05-30T21:40:27.217Z,96827.94
2019-05-30T21:43:05.185Z,96832.75
2019-05-30T21:45:21.599Z,96829.77
2019-05-30T21:47:48.946Z,96834.80
2019-05-30T21:50:16.710Z,96830.33
2019-05-30T21:52:43.585Z,96827.18
2019-05-30T21:55:10.613Z,96831.30
2019-05-30T21:57:36.959Z,96827.34
2019-05-30T22:00:11.716Z,96832.34
2019-05-30T22:02:40.314Z,96832.34
2019-05-30T22:05:06.774Z,96833.73
2019-05-30T22:07:33.179Z,96833.81
2019-05-30T22:09:59.473Z,96838.37
2019-05-30T22:12:25.668Z,96830.36
2019-05-30T22:14:52.060Z,96839.20
2019-05-30T22:17:18.144Z,96838.89
2019-05-30T22:19:44.449Z,96835.75
2019-05-30T22:22:11.586Z,96837.74
2019-05-30T22:24:37.825Z,96834.83
2019-05-30T22:27:06.802Z,96834.66
2019-05-30T22:29:32.820Z,96835.15
2019-05-30T22:31:59.298Z,96836.84
2019-05-30T22:34:25.592Z,96838.42
2019-05-30T22:36:52.814Z,96835.81
2019-05-30T22:39:19.171Z,96834.03
2019-05-30T22:41:45.841Z,96841.88
2019-05-30T22:44:12.225Z,96842.06
2019-05-30T22:46:38.467Z,96841.56
2019-05-30T22:49:04.789Z,96836.72
2019-05-30T22:51:31.131Z,96835.39
2019-05-30T22:53:57.432Z,96833.73
2019-05-30T22:56:23.702Z,96835.25
2019-05-30T22:58:50.562Z,96830.28
2019-05-30T23:01:18.411Z,96828.09
2019-05-30T23:03:45.062Z,96839.08
2019-05-30T23:06:11.584Z,96837.27
2019-05-30T23:08:38.445Z,96838.28
2019-05-30T23:11:04.722Z,96831.66
2019-05-30T23:13:40.076Z,96833.01
2019-05-30T23:15:58.999Z,96832.34
2019-05-30T23:18:25.150Z,96831.84
2019-05-30T23:20:51.325Z,96837.02
2019-05-30T23:23:17.587Z,96827.05
2019-05-30T23:25:43.736Z,96828.21
2019-05-30T23:28:09.936Z,96832.27
2019-05-30T23:30:36.073Z,96835.29
2019-05-30T23:33:02.308Z,96832.30
2019-05-30T23:35:46.467Z,96832.80
2019-05-30T23:38:20.791Z,96828.45
2019-05-30T23:40:48.960Z,96829.65
2019-05-30T23:43:15.816Z,96827.34
2019-05-30T23:45:42.353Z,96825.66
2019-05-30T23:48:08.830Z,96830.36
2019-05-30T23:50:35.154Z,96832.51
2019-05-30T23:53:24.987Z,96825.56
2019-05-30T23:56:00.540Z,96827.39
2019-05-30T23:58:41.855Z,96826.73
